createdAt,value
2018-11-11T00:00:13.533Z,7.79
2018-11-11T00:06:08.557Z,7.6
2018-11-11T00:12:03.527Z,5.76
2018-11-11T00:17:58.502Z,5.73
2018-11-11T00:23:53.527Z,6.37
2018-11-11T00:29:48.564Z,6.16
2018-11-11T00:35:43.560Z,5.73
2018-11-11T00:41:38.530Z,6.49
2018-11-11T00:47:33.548Z,6.24
2018-11-11T00:53:28.554Z,5.83
2018-11-11T00:59:23.539Z,5.7
2018-11-11T01:05:18.577Z,5.19
2018-11-11T01:11:13.556Z,5.29
2018-11-11T01:17:08.572Z,4.95
2018-11-11T01:23:03.592Z,5.93
2018-11-11T01:28:58.591Z,5.17
2018-11-11T01:34:53.590Z,5.45
2018-11-11T01:40:48.686Z,5.71
2018-11-11T01:46:43.674Z,5.53
2018-11-11T01:52:38.614Z,5.17
2018-11-11T01:58:33.613Z,5.46
2018-11-11T02:04:28.609Z,5.32
2018-11-11T02:10:23.638Z,6.14
2018-11-11T02:16:18.638Z,6.78
2018-11-11T02:22:13.682Z,7.54
2018-11-11T02:28:08.655Z,5.85
2018-11-11T02:34:03.670Z,5.51
2018-11-11T02:39:58.681Z,5.44
2018-11-11T02:45:53.690Z,6.22
2018-11-11T02:51:48.651Z,6.22
2018-11-11T02:57:43.675Z,7.04
2018-11-11T03:03:38.705Z,6.29
2018-11-11T03:09:33.699Z,6.56
2018-11-11T03:15:28.754Z,6.52
2018-11-11T03:21:23.693Z,7.08
2018-11-11T03:27:18.680Z,7.09
2018-11-11T03:33:13.701Z,8.52
2018-11-11T03:39:08.753Z,7.55
2018-11-11T03:45:03.698Z,7.41
2018-11-11T03:50:58.686Z,7.53
2018-11-11T03:56:53.698Z,7.67
2018-11-11T04:02:48.732Z,7.89
2018-11-11T04:08:43.708Z,7.48
2018-11-11T04:14:38.724Z,8.44
2018-11-11T04:20:33.741Z,7.69
2018-11-11T04:26:28.789Z,7.61
2018-11-11T04:32:23.737Z,7.51
2018-11-11T04:38:18.753Z,8.46
2018-11-11T04:44:13.801Z,7.5
2018-11-11T04:50:08.743Z,8.27
2018-11-11T04:56:03.782Z,8.31
2018-11-11T05:01:58.784Z,8.77
2018-11-11T05:07:53.775Z,7.68
2018-11-11T05:13:48.798Z,8.08
2018-11-11T05:19:43.862Z,8.6
2018-11-11T05:25:38.781Z,8.52
2018-11-11T05:31:33.805Z,29.58
2018-11-11T05:37:28.796Z,14.38
2018-11-11T05:43:23.799Z,11.51
2018-11-11T05:49:18.813Z,9.69
2018-11-11T05:55:13.820Z,9.92
2018-11-11T06:01:08.841Z,9.21
2018-11-11T06:07:03.824Z,9.15
2018-11-11T06:12:58.844Z,8.79
2018-11-11T06:18:53.881Z,8.9
2018-11-11T06:24:48.846Z,8.43
2018-11-11T06:30:43.871Z,8.05
2018-11-11T06:36:38.863Z,8.2
2018-11-11T06:42:33.851Z,8.23
2018-11-11T06:48:28.893Z,8.05
2018-11-11T06:54:23.906Z,7.87
2018-11-11T07:00:18.965Z,9.66
2018-11-11T07:06:13.886Z,8.11
2018-11-11T07:12:08.879Z,8.18
2018-11-11T07:18:03.911Z,8.57
2018-11-11T07:23:58.958Z,8.66
2018-11-11T07:29:53.914Z,8.09
2018-11-11T07:35:48.939Z,9.37
2018-11-11T07:41:43.936Z,10.69
2018-11-11T07:47:38.975Z,11.02
2018-11-11T07:53:33.918Z,10.4
2018-11-11T07:59:28.995Z,12.09
2018-11-11T08:05:23.926Z,11.42
2018-11-11T08:11:19.007Z,12.35
2018-11-11T08:17:13.950Z,12.64
2018-11-11T08:23:08.935Z,12.55
2018-11-11T08:29:03.944Z,11.8
2018-11-11T08:34:58.966Z,12.16
2018-11-11T08:40:53.988Z,13.52
2018-11-11T08:46:48.949Z,12.09
2018-11-11T08:52:43.982Z,13.83
2018-11-11T08:58:39.007Z,14.1
2018-11-11T09:04:33.990Z,12.83
2018-11-11T09:10:29.032Z,12.62
2018-11-11T09:16:23.987Z,11.45
2018-11-11T09:22:19.004Z,11.57
2018-11-11T09:28:14.030Z,10.62
2018-11-11T09:34:09.040Z,10.99
2018-11-11T09:40:04.033Z,10.9
2018-11-11T09:45:59.018Z,11.42
2018-11-11T09:51:54.021Z,12.82
2018-11-11T09:57:49.038Z,11.95
2018-11-11T10:03:44.044Z,12.88
2018-11-11T10:09:39.052Z,11.8
2018-11-11T10:15:34.076Z,12.24
2018-11-11T10:21:29.032Z,11.89
2018-11-11T10:27:24.185Z,10.67
2018-11-11T10:33:19.175Z,10.65
2018-11-11T10:39:14.169Z,10.35
2018-11-11T10:45:09.088Z,9.51
2018-11-11T10:51:04.097Z,10.06
2018-11-11T10:56:59.108Z,10.76
2018-11-11T11:02:54.096Z,9.13
2018-11-11T11:08:49.110Z,8.41
2018-11-11T11:14:44.104Z,9.65
2018-11-11T11:20:39.087Z,10.71
2018-11-11T11:26:34.154Z,9.44
2018-11-11T11:32:29.112Z,9.3
2018-11-11T11:38:24.208Z,12.12
2018-11-11T11:44:19.136Z,11
2018-11-11T11:50:14.231Z,9.98
2018-11-11T11:56:09.183Z,10.73
2018-11-11T12:02:04.202Z,14.86
2018-11-11T12:07:59.167Z,20.32
2018-11-11T12:13:54.147Z,14.13
2018-11-11T12:19:49.172Z,14.5
2018-11-11T12:25:44.161Z,14.89
2018-11-11T12:31:39.152Z,14.14
2018-11-11T12:37:34.217Z,14.75
2018-11-11T12:43:29.155Z,20.52
2018-11-11T12:49:24.205Z,23.61
2018-11-11T12:55:19.265Z,18.36
2018-11-11T13:01:14.233Z,19.59
2018-11-11T13:07:09.186Z,19.25
2018-11-11T13:13:04.183Z,19.47
2018-11-11T13:18:59.274Z,19.83
2018-11-11T13:24:54.194Z,22.52
2018-11-11T13:30:49.223Z,20.09
2018-11-11T13:36:44.213Z,23.03
2018-11-11T13:42:39.242Z,22.45
2018-11-11T13:48:34.256Z,20.9
2018-11-11T13:54:29.238Z,23.37
2018-11-11T14:00:24.238Z,22.53
2018-11-11T14:06:19.253Z,21.61
2018-11-11T14:12:14.262Z,21.63
2018-11-11T14:18:09.405Z,22.29
2018-11-11T14:24:04.298Z,22.72
2018-11-11T14:29:59.316Z,21.22
2018-11-11T14:35:54.337Z,21.43
2018-11-11T14:41:49.324Z,22.19
2018-11-11T14:47:44.317Z,21.27
2018-11-11T14:53:39.284Z,22.98
2018-11-11T14:59:34.316Z,26.18
2018-11-11T15:05:29.348Z,24.43
2018-11-11T15:11:24.320Z,31.29
2018-11-11T15:17:19.308Z,26.76
2018-11-11T15:23:14.336Z,23.69
2018-11-11T15:29:09.329Z,24.26
2018-11-11T15:35:04.356Z,24.56
2018-11-11T15:40:59.358Z,25.2
2018-11-11T15:46:54.350Z,24.83
2018-11-11T15:52:49.351Z,21.95
2018-11-11T15:58:44.358Z,22.95
2018-11-11T16:04:39.340Z,24.63
2018-11-11T16:10:34.400Z,28.67
2018-11-11T16:16:29.368Z,27.73
2018-11-11T16:22:24.402Z,26.28
2018-11-11T16:28:19.368Z,26.57
2018-11-11T16:34:14.394Z,24.7
2018-11-11T16:40:09.408Z,23.63
2018-11-11T16:46:04.386Z,26.71
2018-11-11T16:51:59.378Z,32.25
2018-11-11T16:58:27.658Z,34.04
2018-11-11T17:00:01.101Z,31.44
2018-11-11T17:05:56.089Z,30.17
2018-11-11T17:11:51.103Z,30.64
2018-11-11T17:17:46.112Z,30.5
2018-11-11T17:23:41.094Z,27.53
2018-11-11T17:29:36.155Z,25.55
2018-11-11T17:35:31.116Z,24.55
2018-11-11T17:41:26.112Z,23.36
2018-11-11T17:47:21.147Z,26.26
2018-11-11T17:53:16.128Z,24.29
2018-11-11T17:59:11.128Z,22.94
2018-11-11T18:05:06.145Z,27.54
2018-11-11T18:11:01.203Z,23.59
2018-11-11T18:16:56.231Z,28.01
2018-11-11T18:22:51.139Z,28.15
2018-11-11T18:28:46.273Z,20.96
2018-11-11T18:34:41.176Z,19.92
2018-11-11T18:40:36.175Z,17.64
2018-11-11T18:46:31.194Z,17.89
2018-11-11T18:52:26.220Z,18.67
2018-11-11T18:58:21.244Z,16.57
2018-11-11T19:04:16.249Z,16.72
2018-11-11T19:10:11.177Z,27.96
2018-11-11T19:16:06.195Z,19.42
2018-11-11T19:22:01.214Z,49.56
2018-11-11T19:27:56.207Z,24.96
2018-11-11T19:33:51.259Z,26.67
2018-11-11T19:39:46.217Z,20.5
2018-11-11T19:45:41.235Z,23.73
2018-11-11T19:51:36.248Z,20.96
2018-11-11T19:57:31.240Z,21.93
2018-11-11T20:03:26.284Z,24.07
2018-11-11T20:09:21.252Z,28.3
2018-11-11T20:15:16.256Z,36.28
2018-11-11T20:21:11.274Z,36.76
2018-11-11T20:27:06.236Z,43.29
2018-11-11T20:33:01.259Z,43.53
2018-11-11T20:38:56.252Z,43.52
2018-11-11T20:44:51.266Z,35.16
2018-11-11T20:50:46.281Z,36.73
2018-11-11T20:56:41.422Z,35.71
2018-11-11T21:02:36.342Z,32.14
2018-11-11T21:08:31.299Z,29.07
2018-11-11T21:14:26.312Z,28.18
2018-11-11T21:20:21.320Z,29.29
2018-11-11T21:26:16.305Z,22.73
2018-11-11T21:32:11.304Z,19.6
2018-11-11T21:38:06.411Z,17.76
2018-11-11T21:44:01.336Z,18.76
2018-11-11T21:49:56.337Z,20.31
2018-11-11T21:55:51.350Z,19.16
2018-11-11T22:01:46.350Z,18.87
2018-11-11T22:07:41.319Z,19.24
2018-11-11T22:13:36.352Z,19.76
2018-11-11T22:19:31.364Z,20.55
2018-11-11T22:25:26.393Z,21.14
2018-11-11T22:31:21.394Z,19.45
2018-11-11T22:37:16.377Z,16.83
2018-11-11T22:43:11.386Z,16.23
2018-11-11T22:49:06.399Z,16.48
2018-11-11T22:55:01.427Z,14.58
2018-11-11T23:00:56.473Z,13.28
2018-11-11T23:06:51.397Z,14.32
2018-11-11T23:12:46.425Z,14.96
2018-11-11T23:18:41.425Z,13.4
2018-11-11T23:24:36.408Z,13.94
2018-11-11T23:30:31.406Z,14.33
2018-11-11T23:36:26.459Z,14.71
2018-11-11T23:42:21.409Z,13.56
2018-11-11T23:48:16.460Z,12.28
2018-11-11T23:54:11.460Z,12.52
